首页
METAR-TAF:

METAR-TAF

机场 :

魁北克让·勒萨热国际机场

魁北克, 魁北克, 加拿大

纬度: 46-48N, 经度: 071-23W, 海拔: 70米

当前天气观测

该预报发布于1小时和0分钟前的01:00 UTC
风速4节,风向西
温度 0°C
湿度 64%
气压 1013 hPa
能見度: 24.1公里
少量云层高于3000英尺
多云层高于5000英尺
多云层高于7000英尺
小雪

METAR: CYQB 220100Z 28004KT 15SM -SN FEW030 BKN050 BKN070 M00/M06 A2991 RMK SC1SC4AC2 SLP135

时间: 22:00 (02:00 UTC)

预报

该预报发布于2小时和21分钟前的23:39 UTC
预报有效从22日的 00点(UTC)到 22日的 24点(UTC)
风速12节,风向西转西北
能見度: 10公里
散云层高于5000英尺
短暂存在
从 22日的 00点(UTC)到 22日的 02点(UTC)
多云层高于5000英尺
从 22日的 0200点(UTC)
风速10节,风向西
能見度: 10公里
散云层高于1500英尺
多云层高于4000英尺
短暂存在
从 22日的 02点(UTC)到 22日的 06点(UTC)
多云层高于1500英尺
阴天层高于4000英尺
小阵雪
几率 30%
从 22日的 02点(UTC)到 22日的 05点(UTC)
小阵雪
从 22日的 0600点(UTC)
风速12节,风向西
能見度: 10公里
少量云层高于4000英尺
散云层高于18000英尺
从 22日的 1600点(UTC)
风速15节,风向西
能見度: 10公里
多云层高于4000英尺
从 22日的 2200点(UTC)
风速8节,风向西
能見度: 10公里
散云层高于4000英尺

TAF: CYQB 212339Z 2200/2224 29012KT P6SM SCT050 TEMPO 2200/2202 BKN050 FM220200 28010KT P6SM SCT015 BKN040 TEMPO 2202/2206 21/2SM -SHSN BKN015 OVC040 PROB30 2202/2205 11/2SM -SHSN FM220600 26012KT P6SM FEW040 SCT180 FM221600 26015KT P6SM BKN040 FM222200 26008KT P6SM SCT040 RMK NXT FCST BY 220600Z

超过4000个机场的气象观测和天气预报(METAR&TAF报告)。

可查询的气象台以黄色和红色小点在地图上表示。

将鼠标移到小点上方,可查看气象台名称。

然后点击查看天气观测和预报。

如需切换地图:点击带黑十字的绿色按钮放大地图;点击带横线的绿色按钮缩小地图;或者点击绿色箭头查看邻近地区的地图。


METAR-TAF: